Time;durP1;ratioP1;P1;durP2;ratioP2;P2;SDS_P1;SDS_P2;PMS_P1;PMS_P2;Temp;Humidity;BMP_temperature;BMP_pressure;BME280_temperature;BME280_humidity;BME280_pressure;Samples;Min_cycle;Max_cycle;Signal;HPM_P1;HPM_P2
2022/07/11 00:02:21;;;;;;;4.65;3.10;;;16.30;99.90;;;;;;5096194;28;20476;-76
2022/07/11 00:04:46;;;;;;;4.57;3.25;;;16.30;99.90;;;;;;5095535;28;20436;-76
2022/07/11 00:07:13;;;;;;;6.80;2.50;;;16.30;99.90;;;;;;5095275;28;20024;-76
2022/07/11 00:09:39;;;;;;;3.95;2.85;;;16.30;99.90;;;;;;5096101;28;20039;-76
2022/07/11 00:12:06;;;;;;;6.28;2.97;;;16.30;99.90;;;;;;5096440;28;20399;-77
2022/07/11 00:14:31;;;;;;;8.25;3.40;;;16.40;99.90;;;;;;5098652;28;20035;-77
2022/07/11 00:16:57;;;;;;;6.97;4.53;;;16.40;99.90;;;;;;5095436;28;20024;-77
2022/07/11 00:19:23;;;;;;;5.95;3.55;;;16.40;99.90;;;;;;5094931;28;20048;-78
2022/07/11 00:21:50;;;;;;;3.60;2.92;;;16.50;99.90;;;;;;5095498;28;20027;-78
2022/07/11 00:24:19;;;;;;;4.78;3.35;;;16.50;99.90;;;;;;5096112;28;20020;-77
2022/07/11 00:26:49;;;;;;;8.48;3.45;;;16.60;99.90;;;;;;5099104;28;20032;-77
2022/07/11 00:29:15;;;;;;;5.32;3.78;;;16.60;99.90;;;;;;5095657;28;20043;-76
2022/07/11 00:31:40;;;;;;;6.80;3.47;;;16.60;99.90;;;;;;5095046;28;20082;-75
2022/07/11 00:34:06;;;;;;;5.97;3.55;;;16.60;99.90;;;;;;5093769;28;20024;-77
2022/07/11 00:36:31;;;;;;;5.63;3.60;;;16.60;99.90;;;;;;5095187;28;20031;-77
2022/07/11 00:38:58;;;;;;;6.18;3.22;;;16.60;99.90;;;;;;5094681;28;20051;-76
2022/07/11 00:41:23;;;;;;;4.82;3.15;;;16.50;99.90;;;;;;5094644;28;20020;-76
2022/07/11 00:43:55;;;;;;;7.65;3.38;;;16.60;99.90;;;;;;5095172;28;20436;-79
2022/07/11 00:46:21;;;;;;;7.53;3.40;;;16.70;99.90;;;;;;5094884;28;20048;-77
2022/07/11 00:48:47;;;;;;;5.00;3.45;;;16.70;99.90;;;;;;5095420;28;20048;-78
2022/07/11 00:51:12;;;;;;;7.72;4.70;;;16.70;99.90;;;;;;5094938;28;20028;-77
2022/07/11 00:53:40;;;;;;;6.82;4.40;;;16.70;99.90;;;;;;5089222;28;20027;-76
2022/07/11 00:56:08;;;;;;;5.50;4.38;;;16.70;99.90;;;;;;5086022;28;20028;-76
2022/07/11 00:58:35;;;;;;;4.20;3.80;;;16.80;99.90;;;;;;5095062;28;20028;-76
2022/07/11 01:01:01;;;;;;;8.93;4.40;;;16.70;99.90;;;;;;5093713;28;20052;-77
2022/07/11 01:03:27;;;;;;;6.55;4.03;;;16.80;99.90;;;;;;5094525;28;20031;-77
2022/07/11 01:05:52;;;;;;;9.13;5.07;;;16.80;99.90;;;;;;5094539;28;20022;-77
2022/07/11 01:08:18;;;;;;;13.05;5.63;;;16.80;99.90;;;;;;5094209;28;20040;-77
2022/07/11 01:10:44;;;;;;;5.10;4.57;;;16.90;99.90;;;;;;5094326;28;20031;-77
2022/07/11 01:13:09;;;;;;;8.75;4.70;;;16.90;99.90;;;;;;5094208;28;20027;-77
2022/07/11 01:15:35;;;;;;;10.40;5.30;;;16.90;99.90;;;;;;5093753;28;20065;-77
2022/07/11 01:18:02;;;;;;;6.50;4.55;;;16.90;99.90;;;;;;5094041;28;20020;-78
2022/07/11 01:20:28;;;;;;;11.32;4.97;;;16.90;99.90;;;;;;5094400;28;20116;-77
2022/07/11 01:23:03;;;;;;;9.70;4.75;;;16.90;99.90;;;;;;5093769;28;20479;-77
2022/07/11 01:25:30;;;;;;;8.68;4.80;;;16.90;99.90;;;;;;5094464;28;20085;-77
2022/07/11 01:27:57;;;;;;;6.35;4.28;;;16.90;99.90;;;;;;5094342;28;20027;-76
2022/07/11 01:30:23;;;;;;;9.02;5.25;;;17.00;99.90;;;;;;5093538;28;20514;-76
2022/07/11 01:32:51;;;;;;;9.20;4.85;;;17.00;99.90;;;;;;5088899;28;20046;-76
2022/07/11 01:35:17;;;;;;;9.55;5.10;;;17.00;99.90;;;;;;5085529;28;20506;-77
2022/07/11 01:37:42;;;;;;;9.25;3.95;;;17.00;99.90;;;;;;5093213;28;20020;-77
2022/07/11 01:40:08;;;;;;;8.95;4.85;;;16.90;99.90;;;;;;5094314;28;20112;-77
2022/07/11 01:42:34;;;;;;;8.48;5.40;;;17.00;99.90;;;;;;5093619;28;20534;-76
2022/07/11 01:44:59;;;;;;;10.25;6.70;;;17.00;99.90;;;;;;5093138;28;20051;-76
2022/07/11 01:47:25;;;;;;;9.45;5.43;;;17.10;99.90;;;;;;5094527;28;20028;-76
2022/07/11 01:49:51;;;;;;;5.35;4.72;;;17.10;99.90;;;;;;5092677;28;20016;-77
2022/07/11 01:52:16;;;;;;;9.27;5.30;;;16.90;99.90;;;;;;5094096;28;20043;-76
2022/07/11 01:54:42;;;;;;;8.55;5.22;;;17.10;99.90;;;;;;5080475;28;20070;-77
2022/07/11 01:57:09;;;;;;;7.75;5.35;;;17.10;99.90;;;;;;5093211;28;20020;-76
2022/07/11 01:59:35;;;;;;;7.63;5.10;;;17.00;99.90;;;;;;5093635;28;20123;-76
2022/07/11 02:02:01;;;;;;;9.77;5.15;;;17.00;99.90;;;;;;5073954;28;20446;-75
2022/07/11 02:04:26;;;;;;;12.77;5.43;;;17.00;99.90;;;;;;5076916;28;20024;-77
2022/07/11 02:06:52;;;;;;;6.63;4.85;;;17.00;99.90;;;;;;5078759;28;20024;-76
2022/07/11 02:09:17;;;;;;;9.07;5.18;;;17.10;99.90;;;;;;5088435;28;20040;-77
2022/07/11 02:11:43;;;;;;;7.00;5.15;;;17.10;99.90;;;;;;5084101;28;20060;-77
2022/07/11 02:14:08;;;;;;;8.90;5.93;;;17.00;99.90;;;;;;5090658;28;20063;-77
2022/07/11 02:16:34;;;;;;;10.63;5.72;;;17.10;99.90;;;;;;5081951;28;20024;-77
2022/07/11 02:19:00;;;;;;;7.00;5.13;;;17.10;99.90;;;;;;5077726;28;20021;-77
2022/07/11 02:21:25;;;;;;;9.60;5.45;;;17.10;99.90;;;;;;5093382;28;20032;-77
2022/07/11 02:23:51;;;;;;;5.38;4.75;;;17.10;99.90;;;;;;5093355;28;20017;-77
2022/07/11 02:26:16;;;;;;;9.38;5.70;;;17.10;99.90;;;;;;5092658;28;20077;-77
2022/07/11 02:28:42;;;;;;;6.40;4.82;;;17.10;99.90;;;;;;5093215;28;20024;-77
2022/07/11 02:31:08;;;;;;;16.85;5.50;;;17.10;99.90;;;;;;5092885;28;20040;-76
2022/07/11 02:33:34;;;;;;;8.20;5.45;;;17.10;99.90;;;;;;5092752;28;20020;-76
2022/07/11 02:36:00;;;;;;;5.68;4.18;;;17.10;99.90;;;;;;5079165;28;20060;-77
2022/07/11 02:38:26;;;;;;;11.70;5.57;;;17.10;99.90;;;;;;5092919;28;20024;-77
2022/07/11 02:40:52;;;;;;;8.05;5.05;;;17.10;99.90;;;;;;5091936;28;20510;-77
2022/07/11 02:43:17;;;;;;;8.85;5.40;;;17.10;99.90;;;;;;5093798;28;20051;-77
2022/07/11 02:45:43;;;;;;;10.38;5.38;;;17.10;99.90;;;;;;5095860;28;20027;-77
2022/07/11 02:48:08;;;;;;;7.55;5.47;;;17.10;99.90;;;;;;5101025;28;20467;-77
2022/07/11 02:50:34;;;;;;;7.20;5.13;;;17.20;99.90;;;;;;5093248;28;20043;-77
2022/07/11 02:53:00;;;;;;;6.30;4.53;;;17.20;99.90;;;;;;5092290;28;20048;-78
2022/07/11 02:55:25;;;;;;;9.70;4.70;;;17.20;99.90;;;;;;5093237;28;20028;-77
2022/07/11 02:57:54;;;;;;;6.75;4.93;;;17.20;99.90;;;;;;5093069;28;20116;-77
2022/07/11 03:00:19;;;;;;;5.03;4.50;;;17.20;99.90;;;;;;5094452;28;20020;-77
2022/07/11 03:02:45;;;;;;;5.18;4.40;;;17.20;99.90;;;;;;5093558;28;20153;-77
2022/07/11 03:05:12;;;;;;;10.25;4.88;;;17.30;99.90;;;;;;5092532;28;20407;-78
2022/07/11 03:07:38;;;;;;;6.07;4.57;;;17.20;99.90;;;;;;5091856;28;20054;-77
2022/07/11 03:10:04;;;;;;;6.22;4.78;;;17.20;99.90;;;;;;5078960;28;20099;-76
2022/07/11 03:12:30;;;;;;;6.57;5.75;;;17.20;99.90;;;;;;5092130;28;20028;-76
2022/07/11 03:14:56;;;;;;;12.00;6.78;;;17.30;99.90;;;;;;5091485;28;20093;-77
2022/07/11 03:17:22;;;;;;;6.72;6.13;;;17.20;99.90;;;;;;5077965;28;20048;-76
2022/07/11 03:19:47;;;;;;;10.77;7.13;;;17.20;99.90;;;;;;5092420;28;20067;-77
2022/07/11 03:22:14;;;;;;;9.25;6.38;;;17.20;99.90;;;;;;5092268;28;20111;-77
2022/07/11 03:24:41;;;;;;;6.55;5.95;;;17.30;99.90;;;;;;5093032;28;20043;-77
2022/07/11 03:27:07;;;;;;;13.43;6.63;;;17.30;99.90;;;;;;5092932;28;20028;-76
2022/07/11 03:29:33;;;;;;;7.35;5.95;;;17.20;99.90;;;;;;5092035;28;20118;-77
2022/07/11 03:31:59;;;;;;;7.22;6.53;;;17.10;99.90;;;;;;5092129;28;20032;-76
2022/07/11 03:34:27;;;;;;;7.43;5.95;;;17.10;99.90;;;;;;5092234;28;20026;-77
2022/07/11 03:36:53;;;;;;;7.60;5.40;;;17.10;99.90;;;;;;5091974;28;20024;-76
2022/07/11 03:39:20;;;;;;;6.05;5.13;;;17.10;99.90;;;;;;5092375;28;20021;-76
2022/07/11 03:41:46;;;;;;;7.22;5.65;;;17.00;99.90;;;;;;5092980;28;20060;-76
2022/07/11 03:44:12;;;;;;;7.95;7.00;;;17.00;99.90;;;;;;5091713;28;20062;-76
2022/07/11 03:46:38;;;;;;;7.45;6.20;;;17.00;99.90;;;;;;5092548;28;20016;-76
2022/07/11 03:49:03;;;;;;;9.02;6.80;;;17.00;99.90;;;;;;5091976;28;20039;-76
2022/07/11 03:51:29;;;;;;;9.73;6.60;;;17.00;99.90;;;;;;5077500;28;20028;-77
2022/07/11 03:53:55;;;;;;;11.60;7.30;;;17.00;99.90;;;;;;5092024;28;20446;-76
2022/07/11 03:56:22;;;;;;;8.90;7.22;;;17.10;99.90;;;;;;5091587;28;20372;-77
2022/07/11 03:58:49;;;;;;;11.70;7.75;;;17.10;99.90;;;;;;5091334;28;20028;-77
2022/07/11 04:01:15;;;;;;;12.15;9.43;;;17.00;99.90;;;;;;5091819;28;20429;-77
2022/07/11 04:03:41;;;;;;;8.93;8.07;;;17.00;99.90;;;;;;5091029;28;20066;-77
2022/07/11 04:06:06;;;;;;;10.98;8.38;;;17.00;99.90;;;;;;5091722;28;20028;-76
2022/07/11 04:08:32;;;;;;;11.63;8.45;;;17.00;99.90;;;;;;5091483;28;20043;-76
2022/07/11 04:10:57;;;;;;;10.90;8.65;;;17.00;99.90;;;;;;5081902;28;20328;-75
2022/07/11 04:13:26;;;;;;;9.52;8.68;;;17.00;99.90;;;;;;5096124;28;20418;-76
2022/07/11 04:15:51;;;;;;;9.70;8.70;;;17.00;99.90;;;;;;5095402;28;20066;-76
2022/07/11 04:18:17;;;;;;;12.75;10.50;;;17.00;99.90;;;;;;5095842;28;20020;-75
2022/07/11 04:20:43;;;;;;;12.55;8.75;;;17.00;99.90;;;;;;5081555;28;20471;-76
2022/07/11 04:23:08;;;;;;;12.55;9.88;;;17.00;99.90;;;;;;5095518;28;20425;-77
2022/07/11 04:25:34;;;;;;;13.40;10.90;;;17.00;99.90;;;;;;5095000;28;20020;-75
2022/07/11 04:28:00;;;;;;;20.95;10.90;;;17.10;99.90;;;;;;5095191;28;20019;-75
2022/07/11 04:30:26;;;;;;;15.23;11.40;;;17.10;99.90;;;;;;5095384;28;20158;-76
2022/07/11 04:32:51;;;;;;;12.65;10.35;;;17.10;99.90;;;;;;5094213;28;20072;-75
2022/07/11 04:35:17;;;;;;;14.27;11.65;;;17.10;99.90;;;;;;5095518;28;20490;-76
2022/07/11 04:37:43;;;;;;;13.23;11.82;;;17.20;99.90;;;;;;5095595;28;20024;-76
2022/07/11 04:40:09;;;;;;;13.63;10.88;;;17.20;99.90;;;;;;5094599;28;20020;-77
2022/07/11 04:42:35;;;;;;;14.32;10.98;;;17.10;99.90;;;;;;5094950;28;20126;-77
2022/07/11 04:45:00;;;;;;;14.80;11.25;;;17.10;99.90;;;;;;5094884;28;20012;-76
2022/07/11 04:47:26;;;;;;;9.30;8.40;;;17.20;99.90;;;;;;5094742;28;20109;-76
2022/07/11 04:49:52;;;;;;;13.55;10.63;;;17.20;99.90;;;;;;5094913;28;20026;-75
2022/07/11 04:52:18;;;;;;;13.15;11.43;;;17.20;99.90;;;;;;5095277;28;20063;-75
2022/07/11 04:54:43;;;;;;;12.23;10.98;;;17.30;99.90;;;;;;5094335;28;20022;-75
2022/07/11 04:57:09;;;;;;;15.27;10.55;;;17.30;99.90;;;;;;5092497;28;20463;-75
2022/07/11 04:59:35;;;;;;;11.73;10.20;;;17.30;99.90;;;;;;5073000;28;20047;-76
2022/07/11 05:02:00;;;;;;;13.30;10.50;;;17.40;99.90;;;;;;5076051;28;20047;-75
2022/07/11 05:04:26;;;;;;;13.45;11.93;;;17.40;99.90;;;;;;5073123;28;20027;-76
2022/07/11 05:06:51;;;;;;;12.93;9.15;;;17.40;99.90;;;;;;5072380;28;20507;-76
2022/07/11 05:09:17;;;;;;;9.30;8.38;;;17.50;99.90;;;;;;5072752;28;20041;-76
2022/07/11 05:11:43;;;;;;;13.00;8.07;;;17.40;99.90;;;;;;5072872;28;20040;-76
2022/07/11 05:14:08;;;;;;;13.77;9.07;;;17.50;99.90;;;;;;5071634;28;20413;-76
2022/07/11 05:16:34;;;;;;;11.77;8.07;;;17.50;99.90;;;;;;5072999;28;20392;-77
2022/07/11 05:18:59;;;;;;;6.72;5.90;;;17.50;99.90;;;;;;5073986;28;20381;-77
2022/07/11 05:21:25;;;;;;;6.75;5.53;;;17.50;99.90;;;;;;5082417;28;20468;-77
2022/07/11 05:23:51;;;;;;;2.88;2.58;;;17.60;99.90;;;;;;5073697;28;20433;-76
2022/07/11 05:26:17;;;;;;;4.15;2.40;;;17.60;99.90;;;;;;5078767;28;20032;-77
2022/07/11 05:28:43;;;;;;;3.47;2.30;;;17.60;99.90;;;;;;5075007;28;20053;-78
2022/07/11 05:31:08;;;;;;;3.75;2.38;;;17.60;99.90;;;;;;5077234;28;20048;-76
2022/07/11 05:33:37;;;;;;;3.13;2.63;;;17.60;99.90;;;;;;5074415;28;20021;-76
2022/07/11 05:36:04;;;;;;;3.33;2.42;;;17.60;99.90;;;;;;5072357;28;20037;-76
2022/07/11 05:38:30;;;;;;;5.00;2.90;;;17.50;99.90;;;;;;5072763;28;20104;-77
2022/07/11 05:40:55;;;;;;;4.38;3.33;;;17.50;99.90;;;;;;5073301;28;20112;-77
2022/07/11 05:43:23;;;;;;;8.27;3.50;;;17.50;99.90;;;;;;5079307;28;20526;-77
2022/07/11 05:45:48;;;;;;;4.30;3.67;;;17.50;99.90;;;;;;5074948;28;20029;-77
2022/07/11 05:48:14;;;;;;;4.60;4.18;;;17.50;99.90;;;;;;5072476;28;20017;-77
2022/07/11 05:50:40;;;;;;;9.60;4.90;;;17.40;99.90;;;;;;5074777;28;20024;-77
2022/07/11 05:53:05;;;;;;;9.05;4.93;;;17.50;99.90;;;;;;5074469;28;20024;-76
2022/07/11 05:55:31;;;;;;;6.72;5.35;;;17.50;99.90;;;;;;5072242;28;20028;-77
2022/07/11 05:57:57;;;;;;;7.20;6.40;;;17.50;99.90;;;;;;5071006;28;20490;-77
2022/07/11 06:00:25;;;;;;;7.43;5.55;;;17.50;99.90;;;;;;5072055;28;20036;-75
2022/07/11 06:02:51;;;;;;;8.13;4.45;;;17.50;99.90;;;;;;5071261;28;20027;-76
2022/07/11 06:05:16;;;;;;;6.28;5.07;;;17.50;99.90;;;;;;5072187;28;20025;-75
2022/07/11 06:10:27;;;;;;;8.90;5.32;;;17.50;99.90;;;;;;5071974;28;20027;-76
2022/07/11 06:12:53;;;;;;;4.55;4.07;;;17.50;99.90;;;;;;5072619;28;20108;-77
2022/07/11 06:15:19;;;;;;;9.32;4.13;;;17.50;99.90;;;;;;5075663;28;20110;-76
2022/07/11 06:17:45;;;;;;;6.82;4.65;;;17.50;99.90;;;;;;5078799;28;20363;-82
2022/07/11 06:20:11;;;;;;;6.93;4.50;;;17.50;99.90;;;;;;5081456;28;20032;-81
2022/07/11 06:22:36;;;;;;;9.73;5.25;;;17.50;99.90;;;;;;5080666;28;20025;-81
2022/07/11 06:25:02;;;;;;;7.18;4.68;;;17.50;99.90;;;;;;5079716;28;20073;-78
2022/07/11 06:27:28;;;;;;;7.68;4.20;;;17.50;99.90;;;;;;5080879;28;20032;-81
2022/07/11 06:29:53;;;;;;;5.43;4.72;;;17.50;99.90;;;;;;5075581;28;20021;-81
2022/07/11 06:32:19;;;;;;;8.23;4.35;;;17.40;99.90;;;;;;5080666;28;20051;-84
2022/07/11 06:34:44;;;;;;;7.53;5.10;;;17.40;99.90;;;;;;5089500;28;20495;-80
2022/07/11 06:37:13;;;;;;;5.28;4.72;;;17.40;99.90;;;;;;5076861;28;20063;-80
2022/07/11 06:39:38;;;;;;;8.10;4.75;;;17.50;99.90;;;;;;5093037;28;20483;-82
2022/07/11 06:42:04;;;;;;;5.68;4.95;;;17.50;99.90;;;;;;5083349;28;20032;-81
2022/07/11 06:44:29;;;;;;;6.18;5.05;;;17.50;99.90;;;;;;5076916;28;20038;-82
2022/07/11 06:46:55;;;;;;;5.65;5.15;;;17.50;99.90;;;;;;5073049;28;20017;-80
2022/07/11 06:49:21;;;;;;;7.75;5.60;;;17.50;99.90;;;;;;5074222;28;20059;-81
2022/07/11 06:51:47;;;;;;;10.45;5.82;;;17.60;99.90;;;;;;5074593;28;20058;-81
2022/07/11 06:54:12;;;;;;;10.20;6.78;;;17.60;99.90;;;;;;5075326;28;20021;-81
2022/07/11 06:56:38;;;;;;;13.85;8.32;;;17.70;99.90;;;;;;5073877;28;20024;-79
2022/07/11 06:59:03;;;;;;;10.95;6.90;;;17.60;99.90;;;;;;5072894;28;20110;-80
2022/07/11 07:01:29;;;;;;;11.43;8.63;;;17.70;99.90;;;;;;5073150;28;20032;-81
2022/07/11 07:03:55;;;;;;;13.15;11.38;;;17.80;99.90;;;;;;5073822;28;20019;-79
2022/07/11 07:06:20;;;;;;;21.45;11.68;;;17.80;99.90;;;;;;5071959;28;20343;-77
2022/07/11 07:08:46;;;;;;;16.55;13.05;;;17.70;99.90;;;;;;5072555;28;20135;-80
2022/07/11 07:11:12;;;;;;;23.27;16.27;;;17.70;99.90;;;;;;5080966;28;20085;-79
2022/07/11 07:13:37;;;;;;;16.75;13.32;;;17.80;99.90;;;;;;5091952;28;20027;-80
2022/07/11 07:16:06;;;;;;;15.32;13.13;;;17.90;99.90;;;;;;5093543;28;20083;-79
2022/07/11 07:18:33;;;;;;;16.35;13.95;;;17.90;99.90;;;;;;5075653;28;20029;-79
2022/07/11 07:20:58;;;;;;;16.90;13.18;;;17.90;99.90;;;;;;5071530;28;20020;-79
2022/07/11 07:23:24;;;;;;;15.55;13.32;;;18.10;99.90;;;;;;5071383;28;20031;-78
2022/07/11 07:25:50;;;;;;;14.20;11.80;;;18.20;99.90;;;;;;5071522;28;20515;-78
2022/07/11 07:28:15;;;;;;;14.55;13.13;;;18.20;99.90;;;;;;5071022;28;20013;-77
2022/07/11 07:30:41;;;;;;;20.27;15.20;;;18.30;99.90;;;;;;5071540;28;20037;-78
2022/07/11 07:33:07;;;;;;;19.02;15.13;;;18.30;99.90;;;;;;5071310;28;20147;-79
2022/07/11 07:35:33;;;;;;;16.00;14.10;;;18.30;99.90;;;;;;5071707;28;20029;-79
2022/07/11 07:38:00;;;;;;;15.82;13.80;;;18.30;99.90;;;;;;5071688;28;20021;-80
2022/07/11 07:40:26;;;;;;;14.10;12.50;;;18.40;99.90;;;;;;5071606;28;20021;-80
2022/07/11 07:42:51;;;;;;;15.35;13.50;;;18.40;99.90;;;;;;5071380;28;20020;-80
2022/07/11 07:45:17;;;;;;;17.83;13.20;;;18.40;99.90;;;;;;5075635;28;20017;-78
2022/07/11 07:47:42;;;;;;;20.40;16.38;;;18.30;99.90;;;;;;5083247;28;20051;-78
2022/07/11 07:50:08;;;;;;;19.58;16.80;;;18.40;99.90;;;;;;5074927;28;20024;-77
2022/07/11 07:52:34;;;;;;;22.55;18.27;;;18.40;99.90;;;;;;5076145;28;20028;-78
2022/07/11 07:54:59;;;;;;;19.90;16.80;;;18.30;99.90;;;;;;5078225;28;20031;-79
2022/07/11 07:57:25;;;;;;;26.58;14.93;;;18.30;99.90;;;;;;5076854;28;20027;-77
2022/07/11 07:59:50;;;;;;;14.45;12.30;;;18.30;99.90;;;;;;5076957;28;20017;-78
2022/07/11 08:02:16;;;;;;;13.02;11.63;;;18.30;99.90;;;;;;5076205;28;20024;-78
2022/07/11 08:04:42;;;;;;;12.25;10.82;;;18.30;99.90;;;;;;5076189;28;20107;-78
2022/07/11 08:07:07;;;;;;;18.02;12.25;;;18.30;99.90;;;;;;5078440;28;20025;-79
2022/07/11 08:09:33;;;;;;;20.95;14.18;;;18.40;99.90;;;;;;5082866;28;20058;-79
2022/07/11 08:11:58;;;;;;;16.73;14.15;;;18.50;99.90;;;;;;5091353;28;20032;-78
2022/07/11 08:14:24;;;;;;;21.23;15.25;;;18.50;99.90;;;;;;5096509;28;20111;-79
2022/07/11 08:16:50;;;;;;;22.83;15.43;;;18.50;99.90;;;;;;5096175;28;20027;-78
2022/07/11 08:19:16;;;;;;;18.15;14.25;;;18.40;99.90;;;;;;5092263;28;20525;-80
2022/07/11 08:21:42;;;;;;;18.25;14.07;;;18.40;99.90;;;;;;5093383;28;20008;-78
2022/07/11 08:24:07;;;;;;;14.98;13.35;;;18.50;99.90;;;;;;5102294;28;20056;-79
2022/07/11 08:26:33;;;;;;;14.20;12.88;;;18.50;99.90;;;;;;5087422;28;20052;-79
2022/07/11 08:29:00;;;;;;;15.43;12.63;;;18.60;99.90;;;;;;5090644;28;20399;-77
2022/07/11 08:31:26;;;;;;;14.20;12.77;;;18.70;99.90;;;;;;5095234;28;20033;-79
2022/07/11 08:33:52;;;;;;;13.50;12.20;;;18.70;99.90;;;;;;5095776;28;20524;-79
2022/07/11 08:36:18;;;;;;;13.18;11.88;;;18.90;99.90;;;;;;5095538;28;20099;-78
2022/07/11 08:38:46;;;;;;;12.15;10.98;;;18.90;99.90;;;;;;5092711;28;20024;-78
2022/07/11 08:41:14;;;;;;;11.65;10.65;;;19.10;99.90;;;;;;5083349;28;20036;-79
2022/07/11 08:43:41;;;;;;;12.45;11.35;;;19.10;99.90;;;;;;5075550;28;20031;-80
2022/07/11 08:46:09;;;;;;;7.80;7.20;;;19.20;99.90;;;;;;5073738;28;20032;-78
2022/07/11 08:48:37;;;;;;;8.70;7.20;;;19.30;99.90;;;;;;5076110;28;20525;-78
2022/07/11 08:51:05;;;;;;;7.53;6.90;;;19.50;99.90;;;;;;5076090;28;20123;-78
2022/07/11 08:53:32;;;;;;;5.97;5.30;;;19.60;99.90;;;;;;5074569;28;20440;-78
2022/07/11 08:56:00;;;;;;;5.28;4.88;;;19.70;99.90;;;;;;5074859;28;20108;-78
2022/07/11 08:58:26;;;;;;;6.85;6.25;;;19.70;99.90;;;;;;5075224;28;20024;-77
2022/07/11 09:00:51;;;;;;;5.63;5.22;;;19.70;99.90;;;;;;5074196;28;20027;-78
2022/07/11 09:03:19;;;;;;;4.70;4.30;;;19.80;99.90;;;;;;5074647;28;20024;-77
2022/07/11 09:05:45;;;;;;;3.90;3.58;;;20.00;99.90;;;;;;5074239;28;20021;-77
2022/07/11 09:08:11;;;;;;;3.50;3.20;;;20.10;99.90;;;;;;5073761;28;20053;-76
2022/07/11 09:10:40;;;;;;;2.20;2.10;;;20.10;99.90;;;;;;5078315;28;20085;-77
2022/07/11 09:13:15;;;;;;;4.22;2.45;;;20.20;99.90;;;;;;5084407;28;20031;-78
2022/07/11 09:15:50;;;;;;;2.50;2.35;;;20.30;99.90;;;;;;5104491;28;20061;-78
2022/07/11 09:18:28;;;;;;;2.63;2.42;;;20.40;99.90;;;;;;5107822;28;20080;-77
2022/07/11 09:26:36;;;;;;;3.67;3.25;;;20.30;99.90;;;;;;5102925;28;20059;-77
2022/07/11 09:29:04;;;;;;;4.30;4.00;;;20.30;99.90;;;;;;5101851;28;20019;-77
2022/07/11 09:31:32;;;;;;;4.38;4.07;;;20.40;99.90;;;;;;5099680;28;20490;-78
2022/07/11 09:34:05;;;;;;;4.13;3.83;;;20.50;99.90;;;;;;5108039;28;20076;-77
2022/07/11 09:36:35;;;;;;;3.90;3.60;;;20.70;99.90;;;;;;5106076;28;20019;-78
2022/07/11 09:39:02;;;;;;;4.20;3.90;;;20.80;99.90;;;;;;5104180;28;20030;-76
2022/07/11 09:41:32;;;;;;;3.97;3.72;;;21.10;99.90;;;;;;5103637;28;20493;-77
2022/07/11 09:44:11;;;;;;;4.15;3.85;;;21.00;99.90;;;;;;5099266;28;20132;-78
2022/07/11 09:46:37;;;;;;;4.32;3.47;;;21.10;99.90;;;;;;5103205;28;20023;-79
2022/07/11 09:49:03;;;;;;;3.92;3.63;;;21.10;99.90;;;;;;5100879;28;20470;-78
2022/07/11 09:51:31;;;;;;;7.18;4.18;;;21.10;99.90;;;;;;5102549;28;20116;-78
2022/07/11 09:53:58;;;;;;;6.05;2.88;;;21.20;99.90;;;;;;5100760;28;20084;-78
2022/07/11 09:56:32;;;;;;;3.05;2.78;;;21.30;99.90;;;;;;5099404;28;20025;-77
2022/07/11 09:59:04;;;;;;;5.25;3.03;;;21.40;99.90;;;;;;5110320;28;20389;-77
2022/07/11 10:01:30;;;;;;;3.88;2.70;;;21.50;99.90;;;;;;5102487;28;20059;-78
2022/07/11 10:03:56;;;;;;;4.13;3.25;;;21.60;99.90;;;;;;5102722;28;20443;-78
2022/07/11 10:06:23;;;;;;;5.85;3.40;;;21.70;99.90;;;;;;5091688;28;20024;-78
2022/07/11 10:08:51;;;;;;;3.80;3.22;;;21.60;99.90;;;;;;5107577;28;20063;-78
2022/07/11 10:11:18;;;;;;;6.10;3.05;;;21.60;99.90;;;;;;5114658;28;20059;-78
2022/07/11 10:13:44;;;;;;;2.78;2.63;;;21.60;99.90;;;;;;5114344;28;20032;-76
2022/07/11 10:16:32;;;;;;;3.40;3.13;;;21.50;99.90;;;;;;5110223;28;20024;-77
2022/07/11 10:19:16;;;;;;;3.55;2.53;;;21.40;99.90;;;;;;5108847;28;20012;-77
2022/07/11 10:22:06;;;;;;;3.47;2.70;;;21.40;99.90;;;;;;5098055;28;20043;-77
2022/07/11 10:25:15;;;;;;;3.37;2.97;;;21.50;99.90;;;;;;5092629;28;20498;-78
2022/07/11 10:28:15;;;;;;;4.03;3.57;;;21.70;99.90;;;;;;5079210;28;20387;-76
2022/07/11 10:30:46;;;;;;;3.97;3.67;;;21.50;99.90;;;;;;5104947;28;20482;-77
2022/07/11 10:33:14;;;;;;;4.25;3.85;;;21.60;99.90;;;;;;5094911;28;20048;-76
2022/07/11 10:35:41;;;;;;;4.47;4.07;;;21.70;99.90;;;;;;5100071;28;20024;-78
2022/07/11 10:38:07;;;;;;;4.18;3.85;;;21.80;99.90;;;;;;5108820;28;20027;-76
2022/07/11 10:40:54;;;;;;;3.92;3.60;;;21.80;99.90;;;;;;5107992;28;20403;-77
2022/07/11 10:43:20;;;;;;;4.90;4.22;;;21.80;99.90;;;;;;5079715;28;20027;-76
2022/07/11 10:45:56;;;;;;;4.63;4.22;;;21.90;99.90;;;;;;5109345;28;20015;-78
2022/07/11 10:48:23;;;;;;;5.28;4.32;;;22.20;99.90;;;;;;5099145;28;20052;-77
2022/07/11 10:51:02;;;;;;;5.43;4.93;;;22.40;99.90;;;;;;5099607;28;20095;-77
2022/07/11 10:53:34;;;;;;;6.90;5.28;;;22.50;99.90;;;;;;5101184;28;20448;-78
2022/07/11 10:56:30;;;;;;;5.93;5.40;;;22.50;99.90;;;;;;5105562;28;20034;-78
2022/07/11 10:59:06;;;;;;;5.90;5.40;;;22.30;99.90;;;;;;5081680;28;20381;-78
2022/07/11 11:01:32;;;;;;;5.50;5.05;;;22.20;99.90;;;;;;5072431;28;20025;-78
2022/07/11 11:04:41;;;;;;;4.85;4.35;;;22.30;99.90;;;;;;5071892;28;20020;-78
2022/07/11 11:07:26;;;;;;;4.32;3.83;;;22.50;99.90;;;;;;5071731;28;20097;-79
2022/07/11 11:09:52;;;;;;;4.63;4.30;;;22.50;99.90;;;;;;5071190;28;20048;-80
2022/07/11 11:12:17;;;;;;;4.82;4.43;;;22.60;99.90;;;;;;5089596;28;20081;-79
2022/07/11 11:14:43;;;;;;;5.30;4.80;;;22.50;99.90;;;;;;5093192;28;20058;-78
2022/07/11 11:17:34;;;;;;;5.50;4.88;;;22.50;99.90;;;;;;5092718;28;20020;-77
2022/07/11 11:20:01;;;;;;;4.28;3.97;;;22.50;99.90;;;;;;5095393;28;20052;-78
2022/07/11 11:22:28;;;;;;;6.50;4.93;;;22.60;99.90;;;;;;5096635;28;20483;-77
2022/07/11 11:24:56;;;;;;;4.35;3.95;;;22.90;99.90;;;;;;5081136;28;20377;-78
2022/07/11 11:27:23;;;;;;;3.90;3.60;;;22.80;99.90;;;;;;5075199;28;20430;-77
2022/07/11 11:29:54;;;;;;;4.43;4.03;;;22.90;99.90;;;;;;5076097;28;20024;-77
2022/07/11 11:32:21;;;;;;;5.13;4.18;;;23.10;99.90;;;;;;5076958;28;20066;-77
2022/07/11 11:34:47;;;;;;;3.63;3.33;;;23.00;99.90;;;;;;5075911;28;20025;-78
2022/07/11 11:37:16;;;;;;;4.30;3.90;;;23.00;99.90;;;;;;5076708;28;20028;-77
2022/07/11 11:39:41;;;;;;;4.82;4.43;;;23.00;99.90;;;;;;5080678;28;20059;-77
2022/07/11 11:42:15;;;;;;;3.67;3.38;;;22.90;99.90;;;;;;5089985;28;20020;-77
2022/07/11 11:44:53;;;;;;;6.00;4.35;;;23.00;99.90;;;;;;5078164;28;20025;-77
2022/07/11 11:47:19;;;;;;;4.47;4.18;;;23.20;99.90;;;;;;5075950;28;20021;-76
2022/07/11 11:49:46;;;;;;;4.30;3.95;;;23.30;99.90;;;;;;5075584;28;20107;-78
2022/07/11 11:52:12;;;;;;;3.30;3.10;;;23.60;99.90;;;;;;5076639;28;20029;-78
2022/07/11 11:54:41;;;;;;;4.30;3.92;;;23.80;99.90;;;;;;5075370;28;20116;-78
2022/07/11 11:57:12;;;;;;;4.10;3.78;;;23.80;99.90;;;;;;5076349;28;20465;-79
2022/07/11 11:59:39;;;;;;;4.03;3.72;;;23.80;99.90;;;;;;5079714;28;20025;-78
2022/07/11 12:02:05;;;;;;;3.88;3.58;;;23.90;99.90;;;;;;5082809;28;20024;-77
2022/07/11 12:04:36;;;;;;;3.30;3.10;;;24.00;99.90;;;;;;5075945;28;20024;-77
2022/07/11 12:07:03;;;;;;;3.58;3.28;;;24.10;99.90;;;;;;5076419;28;20036;-78
2022/07/11 12:09:50;;;;;;;3.95;3.72;;;24.30;99.90;;;;;;5074692;28;20048;-78
2022/07/11 12:15:06;;;;;;;4.07;3.78;;;24.30;99.90;;;;;;5075587;28;20035;-76
2022/07/11 12:17:32;;;;;;;3.88;3.58;;;23.90;99.90;;;;;;5073771;28;20032;-76
2022/07/11 12:19:58;;;;;;;5.25;4.15;;;23.70;99.90;;;;;;5075179;28;20020;-77
2022/07/11 12:22:25;;;;;;;3.65;3.35;;;23.50;99.90;;;;;;5058142;28;20040;-75
2022/07/11 12:24:52;;;;;;;4.07;3.78;;;23.40;99.90;;;;;;5074717;28;20464;-77
2022/07/11 12:27:24;;;;;;;4.70;4.40;;;23.30;99.90;;;;;;5075477;28;20446;-76
2022/07/11 12:29:52;;;;;;;4.13;3.83;;;23.80;99.90;;;;;;5072670;28;20111;-71
2022/07/11 12:32:19;;;;;;;4.65;4.25;;;23.10;99.90;;;;;;5087288;28;20659;-77
2022/07/11 12:34:49;;;;;;;5.15;4.75;;;23.20;99.90;;;;;;5095700;28;20123;-78
2022/07/11 12:37:20;;;;;;;4.57;4.25;;;23.10;99.90;;;;;;5094695;28;20032;-78
2022/07/11 12:39:51;;;;;;;3.92;3.63;;;23.40;99.90;;;;;;5095967;28;20035;-77
2022/07/11 12:42:24;;;;;;;4.00;3.60;;;23.60;99.90;;;;;;5095430;28;20038;-76
2022/07/11 12:44:58;;;;;;;3.70;3.38;;;23.80;99.90;;;;;;5095056;28;20035;-78
2022/07/11 12:47:27;;;;;;;5.03;4.70;;;24.00;99.90;;;;;;5094836;28;20024;-77
2022/07/11 12:49:53;;;;;;;4.93;4.53;;;24.00;99.90;;;;;;5094200;28;20012;-78
2022/07/11 12:52:19;;;;;;;5.85;5.40;;;24.20;99.90;;;;;;5092834;28;20479;-78
2022/07/11 12:54:44;;;;;;;5.47;5.07;;;24.40;99.90;;;;;;5094717;28;20035;-78
2022/07/11 12:57:16;;;;;;;4.40;4.10;;;24.50;99.90;;;;;;5094796;28;20433;-78